Time;durP1;ratioP1;P1;durP2;ratioP2;P2;SDS_P1;SDS_P2;PMS_P1;PMS_P2;Temp;Humidity;BMP_temperature;BMP_pressure;BME280_temperature;BME280_humidity;BME280_pressure;Samples;Min_cycle;Max_cycle;Signal;HPM_P1;HPM_P2
2021/12/07 00:02:02;;;;;;;5.70;3.43;;;;;;;5.30;100.00;93461.84;5085180;28;20276;-83
2021/12/07 00:04:30;;;;;;;4.27;3.07;;;;;;;5.29;100.00;93462.06;5091190;28;20612;-82
2021/12/07 00:06:59;;;;;;;5.77;3.57;;;;;;;5.36;100.00;93466.16;5090906;28;20216;-81
2021/12/07 00:09:32;;;;;;;5.50;3.93;;;;;;;5.42;100.00;93469.66;5090749;28;20270;-81
2021/12/07 00:12:04;;;;;;;6.70;4.23;;;;;;;5.38;100.00;93460.78;5091033;28;20243;-81
2021/12/07 00:14:38;;;;;;;7.40;3.90;;;;;;;5.41;100.00;93466.28;5090768;28;20303;-81
2021/12/07 00:17:10;;;;;;;5.57;3.77;;;;;;;5.29;100.00;93470.56;5087432;28;20258;-81
2021/12/07 00:19:39;;;;;;;6.23;3.37;;;;;;;5.27;100.00;93470.00;5070948;28;20555;-80
2021/12/07 00:22:11;;;;;;;6.43;3.33;;;;;;;5.05;100.00;93463.72;5088500;28;20205;-81
2021/12/07 00:24:40;;;;;;;5.40;3.73;;;;;;;4.97;100.00;93467.34;5090636;28;20201;-80
2021/12/07 00:27:09;;;;;;;8.83;4.10;;;;;;;4.92;100.00;93459.47;5085484;28;20286;-79
2021/12/07 00:29:37;;;;;;;5.43;3.90;;;;;;;5.03;100.00;93458.75;5070997;28;20194;-80
2021/12/07 00:32:19;;;;;;;3.63;3.00;;;;;;;4.84;100.00;93454.59;5082257;28;20219;-80
2021/12/07 00:35:01;;;;;;;4.23;3.00;;;;;;;4.90;100.00;93458.91;5090173;28;20210;-80
2021/12/07 00:37:31;;;;;;;5.10;3.60;;;;;;;4.99;100.00;93462.00;5090044;28;20197;-79
2021/12/07 00:40:00;;;;;;;5.47;4.23;;;;;;;5.07;100.00;93472.00;5090109;28;20201;-79
2021/12/07 00:42:29;;;;;;;6.27;4.40;;;;;;;5.04;100.00;93475.00;5085370;28;20592;-79
2021/12/07 00:44:57;;;;;;;6.23;4.60;;;;;;;4.87;100.00;93469.63;5089929;28;20215;-80
2021/12/07 00:47:27;;;;;;;7.30;4.23;;;;;;;4.90;100.00;93468.41;5086509;28;20236;-79
2021/12/07 00:49:55;;;;;;;8.43;4.40;;;;;;;4.85;100.00;93466.44;5089384;28;20251;-80
2021/12/07 00:52:30;;;;;;;9.83;5.30;;;;;;;4.93;100.00;93467.97;5094095;28;20212;-79
2021/12/07 00:54:58;;;;;;;8.17;4.57;;;;;;;4.83;100.00;93462.53;5093907;28;20232;-80
2021/12/07 00:57:27;;;;;;;6.57;3.67;;;;;;;4.97;100.00;93472.47;5094383;28;20244;-80
2021/12/07 00:59:55;;;;;;;5.20;3.37;;;;;;;5.03;100.00;93474.22;5093464;28;20197;-80
2021/12/07 01:02:23;;;;;;;6.17;3.43;;;;;;;4.99;100.00;93478.19;5089699;28;20202;-80
2021/12/07 01:04:58;;;;;;;5.70;3.53;;;;;;;4.87;100.00;93467.06;5091095;28;20207;-80
2021/12/07 01:07:49;;;;;;;6.30;3.17;;;;;;;4.69;100.00;93456.72;5085660;28;20287;-79
2021/12/07 01:26:51;;;;;;;11.37;6.90;;;;;;;5.35;100.00;93461.19;5089018;28;20732;-79
2021/12/07 01:29:22;;;;;;;11.30;7.83;;;;;;;5.30;100.00;93455.91;5092841;28;20244;-79
2021/12/07 01:32:00;;;;;;;11.53;7.73;;;;;;;5.31;100.00;93458.25;5092944;28;20200;-78
2021/12/07 01:34:55;;;;;;;9.40;5.53;;;;;;;5.27;100.00;93451.19;5092772;28;20212;-78
2021/12/07 01:37:39;;;;;;;2.60;2.10;;;;;;;5.25;100.00;93454.00;5092689;28;20205;-80
2021/12/07 01:43:24;;;;;;;2.70;1.93;;;;;;;5.04;100.00;93454.41;5089692;28;20235;-79
2021/12/07 01:51:34;;;;;;;2.20;1.57;;;;;;;4.88;100.00;93436.94;5086430;28;20207;-80
2021/12/07 01:59:37;;;;;;;2.80;2.00;;;;;;;4.87;100.00;93425.09;5091264;28;20231;-79
2021/12/07 02:02:09;;;;;;;3.60;2.40;;;;;;;4.81;100.00;93424.16;5092662;28;20724;-79
2021/12/07 02:04:38;;;;;;;4.40;2.20;;;;;;;4.80;100.00;93406.34;5091877;28;20200;-79
2021/12/07 02:07:08;;;;;;;3.77;2.27;;;;;;;4.93;100.00;93419.09;5091793;28;20307;-78
2021/12/07 02:09:41;;;;;;;3.47;2.00;;;;;;;5.04;100.00;93401.13;5091720;28;20201;-78
2021/12/07 02:12:11;;;;;;;1.87;1.50;;;;;;;5.10;100.00;93397.72;5090748;28;20262;-78
2021/12/07 02:14:40;;;;;;;1.63;1.40;;;;;;;5.01;100.00;93399.00;5091070;28;20207;-78
2021/12/07 02:17:11;;;;;;;2.17;1.30;;;;;;;5.11;100.00;93406.19;5091681;28;20774;-78
2021/12/07 02:19:41;;;;;;;1.57;1.40;;;;;;;4.75;100.00;93408.78;5091665;28;20255;-79
2021/12/07 02:22:11;;;;;;;2.33;1.40;;;;;;;4.65;100.00;93396.38;5085714;28;20205;-79
2021/12/07 02:24:39;;;;;;;1.87;1.30;;;;;;;4.68;100.00;93408.81;5086634;28;20226;-78
2021/12/07 02:27:08;;;;;;;3.37;1.70;;;;;;;4.45;100.00;93399.16;5090128;28;20201;-78
2021/12/07 02:29:37;;;;;;;2.33;1.57;;;;;;;4.24;100.00;93406.47;5089823;28;20215;-81
2021/12/07 02:32:07;;;;;;;4.47;1.70;;;;;;;4.05;100.00;93390.19;5090962;28;20204;-84
2021/12/07 02:34:37;;;;;;;3.87;1.80;;;;;;;4.15;100.00;93387.94;5092513;28;20205;-80
2021/12/07 02:37:05;;;;;;;3.17;1.63;;;;;;;4.18;100.00;93386.72;5091616;28;20682;-80
2021/12/07 02:39:40;;;;;;;2.50;1.70;;;;;;;4.16;100.00;93381.00;5085187;28;20208;-79
2021/12/07 02:42:08;;;;;;;8.23;2.27;;;;;;;4.03;100.00;93373.41;5085143;28;20204;-80
2021/12/07 02:44:36;;;;;;;5.63;2.10;;;;;;;4.11;100.00;93375.69;5092165;28;20219;-79
2021/12/07 02:47:04;;;;;;;1.87;1.50;;;;;;;4.14;100.00;93372.72;5085056;28;20258;-78
2021/12/07 02:49:33;;;;;;;2.30;1.50;;;;;;;4.16;100.00;93394.63;5085124;28;20287;-79
2021/12/07 02:52:02;;;;;;;2.03;1.70;;;;;;;4.15;100.00;93394.88;5085036;28;20204;-79
2021/12/07 02:54:32;;;;;;;4.77;1.80;;;;;;;4.07;100.00;93395.88;5085455;28;20240;-79
2021/12/07 02:57:02;;;;;;;4.13;2.20;;;;;;;4.03;100.00;93394.75;5094552;28;20200;-78
2021/12/07 02:59:31;;;;;;;2.67;2.33;;;;;;;3.94;100.00;93401.13;5095681;28;20204;-79
2021/12/07 03:02:03;;;;;;;3.67;2.20;;;;;;;3.71;100.00;93401.69;5090124;28;20223;-78
2021/12/07 03:04:36;;;;;;;3.63;2.00;;;;;;;3.57;100.00;93396.84;5096197;28;20201;-78
2021/12/07 03:07:13;;;;;;;3.30;1.97;;;;;;;3.46;100.00;93403.41;5093339;28;20205;-78
2021/12/07 03:25:47;;;;;;;2.50;1.87;;;;;;;3.34;100.00;93400.72;5093799;28;20295;-76
2021/12/07 03:26:52;;;;;;;3.93;2.60;;;;;;;3.46;100.00;93382.88;5076298;28;20284;-78
2021/12/07 03:29:22;;;;;;;3.57;2.40;;;;;;;3.38;100.00;93388.22;5091120;28;20283;-80
2021/12/07 03:31:50;;;;;;;2.97;2.40;;;;;;;3.29;100.00;93397.94;5090933;28;20208;-78
2021/12/07 03:34:25;;;;;;;2.53;1.90;;;;;;;3.12;100.00;93393.47;5090501;28;20299;-79
2021/12/07 03:36:55;;;;;;;3.67;2.47;;;;;;;3.11;100.00;93394.50;5086827;28;20288;-79
2021/12/07 03:39:23;;;;;;;3.07;2.40;;;;;;;3.04;100.00;93396.28;5075892;28;20284;-79
2021/12/07 03:41:52;;;;;;;3.80;2.60;;;;;;;3.12;100.00;93393.47;5090565;28;20200;-75
2021/12/07 03:44:23;;;;;;;4.07;2.53;;;;;;;3.01;100.00;93383.84;5088769;28;20212;-78
2021/12/07 03:46:52;;;;;;;4.87;2.70;;;;;;;2.94;100.00;93370.28;5090041;28;20205;-78
2021/12/07 03:49:20;;;;;;;4.67;2.30;;;;;;;3.02;100.00;93388.00;5085203;28;20229;-79
2021/12/07 03:51:48;;;;;;;3.77;2.33;;;;;;;3.01;100.00;93383.84;5084514;28;20197;-79
2021/12/07 03:54:16;;;;;;;2.80;2.20;;;;;;;2.98;100.00;93371.44;5082542;28;20233;-79
2021/12/07 03:56:45;;;;;;;2.90;2.10;;;;;;;2.90;100.00;93379.34;5084142;28;20535;-79
2021/12/07 03:59:13;;;;;;;3.47;2.47;;;;;;;2.84;100.00;93383.53;5090293;28;20214;-79
2021/12/07 04:01:43;;;;;;;5.33;2.60;;;;;;;2.84;100.00;93384.31;5084058;28;20233;-79
2021/12/07 04:04:11;;;;;;;3.77;2.70;;;;;;;2.77;100.00;93388.66;5090005;28;20219;-79
2021/12/07 04:06:40;;;;;;;3.57;2.73;;;;;;;2.81;100.00;93384.72;5089780;28;20265;-79
2021/12/07 04:09:09;;;;;;;3.33;2.83;;;;;;;2.76;100.00;93383.75;5083852;28;20232;-80
2021/12/07 04:11:37;;;;;;;3.00;2.20;;;;;;;2.71;100.00;93391.28;5090010;28;20273;-79
2021/12/07 04:14:07;;;;;;;2.90;2.20;;;;;;;2.51;100.00;93368.22;5090373;28;20204;-81
2021/12/07 04:16:36;;;;;;;3.10;1.93;;;;;;;2.58;100.00;93396.41;5090569;28;20278;-78
2021/12/07 04:19:06;;;;;;;2.53;2.10;;;;;;;2.53;100.00;93391.09;5090787;28;20233;-81
2021/12/07 04:21:35;;;;;;;2.67;2.20;;;;;;;2.53;100.00;93386.78;5077787;28;20205;-79
2021/12/07 04:24:03;;;;;;;4.50;2.70;;;;;;;2.60;100.00;93391.88;5080739;28;20203;-79
2021/12/07 04:26:35;;;;;;;3.43;2.60;;;;;;;2.67;100.00;93387.53;5094084;28;20230;-80
2021/12/07 04:29:04;;;;;;;3.77;2.80;;;;;;;2.69;100.00;93393.22;5088392;28;20221;-80
2021/12/07 04:31:33;;;;;;;4.90;2.70;;;;;;;2.68;100.00;93396.78;5094011;28;20751;-79
2021/12/07 04:34:01;;;;;;;7.17;4.30;;;;;;;2.69;100.00;93391.47;5093771;28;20705;-80
2021/12/07 04:36:30;;;;;;;5.83;4.07;;;;;;;2.50;100.00;93387.16;5093656;28;20202;-79
2021/12/07 04:38:58;;;;;;;5.83;3.37;;;;;;;2.48;100.00;93381.44;5092728;28;20265;-79
2021/12/07 04:41:32;;;;;;;4.30;3.00;;;;;;;2.44;100.00;93387.16;5088202;28;20215;-80
2021/12/07 04:44:01;;;;;;;5.80;2.87;;;;;;;2.40;100.00;93380.84;5093577;28;20232;-80
2021/12/07 04:46:35;;;;;;;4.30;2.90;;;;;;;2.35;100.00;93385.81;5093512;28;20207;-79
2021/12/07 04:57:44;;;;;;;3.37;2.40;;;;;;;1.93;100.00;93372.44;5093853;28;20276;-78
2021/12/07 05:00:14;;;;;;;3.43;2.60;;;;;;;1.86;100.00;93375.97;5086945;28;20208;-79
2021/12/07 05:02:46;;;;;;;4.20;2.90;;;;;;;1.77;100.00;93382.25;5086379;28;20199;-79
2021/12/07 05:05:16;;;;;;;4.53;2.90;;;;;;;1.73;100.00;93381.09;5085758;28;20235;-80
2021/12/07 05:07:51;;;;;;;5.93;3.77;;;;;;;1.69;100.00;93380.69;5086256;28;20300;-79
2021/12/07 05:10:28;;;;;;;5.93;3.80;;;;;;;1.69;100.00;93384.03;5092969;28;20206;-78
2021/12/07 05:16:03;;;;;;;3.80;2.80;;;;;;;1.70;100.00;93390.72;5079025;28;20200;-80
2021/12/07 05:18:52;;;;;;;2.83;2.53;;;;;;;1.57;100.00;93379.69;5082187;28;20281;-80
2021/12/07 05:24:12;;;;;;;4.50;3.33;;;;;;;1.52;100.00;93387.16;5086802;28;20233;-73
2021/12/07 05:37:46;;;;;;;7.13;3.80;;;;;;;1.42;100.00;93384.19;5069133;28;20303;-73
2021/12/07 05:40:17;;;;;;;5.47;3.37;;;;;;;1.40;100.00;93378.47;5092187;28;20204;-73
2021/12/07 05:42:45;;;;;;;5.13;3.40;;;;;;;1.36;100.00;93380.63;5091895;28;20254;-74
2021/12/07 05:45:14;;;;;;;5.13;3.43;;;;;;;1.33;100.00;93383.56;5092040;28;20221;-73
2021/12/07 05:47:42;;;;;;;4.90;3.40;;;;;;;1.31;100.00;93384.75;5091787;28;20223;-76
2021/12/07 05:50:13;;;;;;;4.80;3.37;;;;;;;1.12;100.00;93351.28;5092032;28;20201;-73
2021/12/07 05:52:42;;;;;;;5.73;3.57;;;;;;;1.27;100.00;93373.34;5091873;28;20204;-73
2021/12/07 05:55:12;;;;;;;4.57;3.07;;;;;;;1.13;100.00;93352.03;5091612;28;20290;-73
2021/12/07 05:57:41;;;;;;;5.23;3.10;;;;;;;1.21;100.00;93366.44;5091715;28;20470;-73
2021/12/07 06:00:15;;;;;;;4.10;2.97;;;;;;;1.17;100.00;93358.34;5085207;28;20204;-80
2021/12/07 06:02:46;;;;;;;3.77;2.80;;;;;;;1.27;100.00;93375.91;5079718;28;20210;-73
2021/12/07 06:05:14;;;;;;;4.30;3.03;;;;;;;1.27;100.00;93386.91;5091929;28;20687;-76
2021/12/07 06:07:44;;;;;;;5.30;3.70;;;;;;;1.39;100.00;93384.56;5091137;28;20569;-73
2021/12/07 06:10:12;;;;;;;4.10;3.10;;;;;;;1.30;100.00;93378.06;5089302;28;20285;-73
2021/12/07 06:12:41;;;;;;;7.00;4.20;;;;;;;1.20;100.00;93375.88;5085604;28;20192;-73
2021/12/07 06:15:10;;;;;;;3.70;2.90;;;;;;;1.13;100.00;93378.41;5083526;28;20196;-72
2021/12/07 06:17:40;;;;;;;3.70;3.03;;;;;;;1.07;100.00;93383.50;5087709;28;20709;-73
2021/12/07 06:20:09;;;;;;;2.77;2.47;;;;;;;1.07;100.00;93388.59;5090552;28;20188;-73
2021/12/07 06:22:38;;;;;;;6.23;3.83;;;;;;;1.00;100.00;93378.38;5088904;28;20651;-75
2021/12/07 06:25:07;;;;;;;7.47;4.30;;;;;;;1.12;100.00;93386.28;5089377;28;20612;-73
2021/12/07 06:27:34;;;;;;;10.47;4.93;;;;;;;1.04;100.00;93379.56;5089096;28;20224;-72
2021/12/07 06:30:06;;;;;;;8.17;4.77;;;;;;;1.06;100.00;93387.06;5086096;28;20234;-72
2021/12/07 06:32:33;;;;;;;8.40;4.57;;;;;;;1.17;100.00;93381.38;5089271;28;20249;-73
2021/12/07 06:35:01;;;;;;;7.00;4.40;;;;;;;1.11;100.00;93385.50;5086839;28;20211;-73
2021/12/07 06:37:28;;;;;;;9.70;4.67;;;;;;;1.23;100.00;93378.06;5089515;28;20204;-73
2021/12/07 06:39:56;;;;;;;6.77;4.33;;;;;;;1.09;100.00;93379.78;5089263;28;20188;-74
2021/12/07 06:42:25;;;;;;;7.60;4.47;;;;;;;1.08;100.00;93379.97;5088753;28;20259;-73
2021/12/07 06:44:53;;;;;;;9.37;5.20;;;;;;;1.10;100.00;93389.03;5090705;28;20201;-79
2021/12/07 06:47:25;;;;;;;9.53;4.57;;;;;;;1.20;100.00;93373.31;5090180;28;20660;-77
2021/12/07 06:49:53;;;;;;;7.17;5.07;;;;;;;1.27;100.00;93379.22;5087870;28;20228;-72
2021/12/07 06:52:25;;;;;;;4.43;3.60;;;;;;;1.17;100.00;93373.69;5088807;28;20200;-73
2021/12/07 06:54:54;;;;;;;6.30;3.00;;;;;;;1.11;100.00;93382.13;5088551;28;20227;-73
2021/12/07 06:57:24;;;;;;;7.50;3.90;;;;;;;1.14;100.00;93381.75;5090268;28;20235;-73
2021/12/07 06:59:52;;;;;;;8.10;5.00;;;;;;;1.09;100.00;93384.91;5089338;28;20333;-74
2021/12/07 07:02:20;;;;;;;6.70;5.00;;;;;;;0.98;100.00;93380.31;5089972;28;20212;-72
2021/12/07 07:04:50;;;;;;;7.60;5.37;;;;;;;0.99;100.00;93387.00;5090018;28;20270;-72
2021/12/07 07:07:22;;;;;;;5.73;4.30;;;;;;;0.98;100.00;93377.75;5090068;28;20236;-72
2021/12/07 07:09:50;;;;;;;6.67;4.97;;;;;;;1.07;100.00;93374.06;5089799;28;20221;-73
2021/12/07 07:12:19;;;;;;;5.77;4.40;;;;;;;0.97;100.00;93385.63;5089701;28;20201;-71
2021/12/07 07:14:50;;;;;;;6.17;4.37;;;;;;;0.92;100.00;93377.75;5089380;28;20684;-73
2021/12/07 07:17:18;;;;;;;9.23;5.20;;;;;;;0.97;100.00;93393.31;5089590;28;20640;-73
2021/12/07 07:19:46;;;;;;;8.37;4.90;;;;;;;0.96;100.00;93389.16;5089816;28;20194;-73
2021/12/07 07:22:16;;;;;;;5.43;3.73;;;;;;;0.97;100.00;93385.63;5088718;28;20205;-72
2021/12/07 07:24:45;;;;;;;6.10;4.43;;;;;;;0.85;100.00;93380.28;5089243;28;20715;-73
2021/12/07 07:27:13;;;;;;;6.50;5.00;;;;;;;0.87;100.00;93395.41;5089059;28;20220;-73
2021/12/07 07:29:41;;;;;;;10.50;6.03;;;;;;;0.80;100.00;93389.50;5088852;28;20227;-72
2021/12/07 07:32:11;;;;;;;5.13;3.70;;;;;;;0.80;100.00;93385.19;5088583;28;20633;-72
2021/12/07 07:34:41;;;;;;;9.40;5.27;;;;;;;0.83;100.00;93374.56;5088716;28;20730;-71
2021/12/07 07:37:09;;;;;;;8.50;4.53;;;;;;;0.83;100.00;93399.34;5089033;28;20220;-72
2021/12/07 07:39:39;;;;;;;8.00;5.50;;;;;;;0.84;100.00;93388.13;5089492;28;20204;-72
2021/12/07 07:42:08;;;;;;;9.23;4.83;;;;;;;0.82;100.00;93378.09;5085650;28;20192;-73
2021/12/07 07:44:35;;;;;;;9.87;5.13;;;;;;;0.85;100.00;93390.50;5086561;28;20204;-72
2021/12/07 07:47:04;;;;;;;7.60;5.10;;;;;;;0.86;100.00;93383.63;5089933;28;20266;-73
2021/12/07 07:49:31;;;;;;;8.10;5.10;;;;;;;0.88;100.00;93392.69;5089128;28;20597;-72
2021/12/07 07:52:01;;;;;;;15.27;7.70;;;;;;;0.85;100.00;93393.06;5089328;28;20208;-72
2021/12/07 07:54:29;;;;;;;15.87;10.57;;;;;;;0.65;100.00;93374.28;5089170;28;20319;-72
2021/12/07 07:56:59;;;;;;;16.37;11.80;;;;;;;0.69;100.00;93385.72;5089643;28;20193;-73
2021/12/07 07:59:26;;;;;;;22.80;12.17;;;;;;;0.65;100.00;93369.19;5089157;28;20205;-74
2021/12/07 08:01:54;;;;;;;24.87;15.53;;;;;;;0.72;100.00;93387.91;5089719;28;20737;-78
2021/12/07 08:04:22;;;;;;;18.83;10.10;;;;;;;0.75;100.00;93384.94;5089555;28;20289;-75
2021/12/07 08:06:51;;;;;;;17.30;9.10;;;;;;;0.74;100.00;93380.03;5089959;28;20262;-82
2021/12/07 08:09:20;;;;;;;14.30;7.03;;;;;;;0.68;100.00;93373.91;5090185;28;20224;-76
2021/12/07 08:11:49;;;;;;;11.43;5.83;;;;;;;0.68;100.00;93380.78;5089769;28;20660;-76
2021/12/07 08:14:18;;;;;;;11.37;5.77;;;;;;;0.64;100.00;93384.69;5089789;28;20213;-78
2021/12/07 08:16:47;;;;;;;12.47;6.13;;;;;;;0.61;100.00;93385.84;5089004;28;20228;-77
2021/12/07 08:19:14;;;;;;;11.80;5.50;;;;;;;0.65;100.00;93393.94;5089843;28;20200;-79
2021/12/07 08:21:42;;;;;;;9.50;5.60;;;;;;;0.58;100.00;93389.59;5087313;28;20232;-80
2021/12/07 08:24:10;;;;;;;9.90;5.90;;;;;;;0.64;100.00;93398.25;5089618;28;20204;-79
2021/12/07 08:26:37;;;;;;;9.53;5.60;;;;;;;0.66;100.00;93406.53;5089371;28;20242;-78
2021/12/07 08:29:05;;;;;;;9.30;5.93;;;;;;;0.71;100.00;93395.75;5083231;28;20232;-78
2021/12/07 08:31:36;;;;;;;7.70;4.40;;;;;;;0.67;100.00;93391.97;5088376;28;20193;-77
2021/12/07 08:34:04;;;;;;;7.03;4.70;;;;;;;0.54;100.00;93378.19;5088713;28;20232;-77
2021/12/07 08:36:32;;;;;;;13.13;7.53;;;;;;;0.59;100.00;93392.94;5089277;28;20232;-77
2021/12/07 08:39:01;;;;;;;11.07;5.30;;;;;;;0.74;100.00;93408.94;5089067;28;20207;-78
2021/12/07 08:41:28;;;;;;;8.23;4.80;;;;;;;0.64;100.00;93411.03;5089027;28;20196;-77
2021/12/07 08:43:57;;;;;;;6.50;4.50;;;;;;;0.53;100.00;93394.47;5089009;28;20232;-77
2021/12/07 08:46:25;;;;;;;7.33;4.40;;;;;;;0.61;100.00;93411.41;5088636;28;20520;-76
2021/12/07 08:48:55;;;;;;;11.73;4.77;;;;;;;0.63;100.00;93412.03;5087606;28;20741;-77
2021/12/07 08:51:23;;;;;;;7.63;4.63;;;;;;;0.57;100.00;93416.13;5089455;28;20208;-82
2021/12/07 08:53:56;;;;;;;8.83;5.50;;;;;;;0.61;100.00;93418.31;5090045;28;20252;-83
2021/12/07 09:01:55;;;;;;;12.30;7.57;;;;;;;0.69;100.00;93420.72;5085896;28;20207;-78
2021/12/07 09:04:25;;;;;;;11.80;6.37;;;;;;;0.62;100.00;93425.78;5090488;28;20353;-78
2021/12/07 09:06:53;;;;;;;12.00;7.37;;;;;;;0.64;100.00;93433.25;5089963;28;20201;-80
2021/12/07 09:09:25;;;;;;;6.73;4.93;;;;;;;0.64;100.00;93433.25;5089356;28;20228;-79
2021/12/07 09:11:55;;;;;;;8.70;5.23;;;;;;;0.62;100.00;93428.34;5084557;28;20199;-79
2021/12/07 09:14:24;;;;;;;16.13;8.00;;;;;;;0.73;100.00;93427.00;5086878;28;20209;-79
2021/12/07 09:16:52;;;;;;;13.37;8.53;;;;;;;0.75;100.00;93425.06;5088960;28;20215;-79
2021/12/07 09:19:22;;;;;;;11.43;8.17;;;;;;;0.64;100.00;93405.91;5091673;28;20287;-80
2021/12/07 09:21:51;;;;;;;11.33;7.53;;;;;;;0.83;100.00;93420.59;5091929;28;20196;-79
2021/12/07 09:24:18;;;;;;;14.33;8.30;;;;;;;0.68;100.00;93419.91;5084925;28;20211;-79
2021/12/07 09:26:46;;;;;;;13.67;7.63;;;;;;;0.66;100.00;93421.09;5088729;28;20313;-79
2021/12/07 09:29:14;;;;;;;13.37;6.70;;;;;;;0.57;100.00;93413.56;5092406;28;20221;-79
2021/12/07 09:31:42;;;;;;;11.07;6.83;;;;;;;0.59;100.00;93408.25;5092649;28;20236;-79
2021/12/07 09:34:11;;;;;;;10.13;6.70;;;;;;;0.60;100.00;93409.84;5093366;28;20206;-79
2021/12/07 09:36:42;;;;;;;12.33;6.77;;;;;;;0.64;100.00;93403.38;5092773;28;20200;-78
2021/12/07 09:39:14;;;;;;;10.53;7.63;;;;;;;0.64;100.00;93405.91;5092958;28;20698;-77
2021/12/07 09:41:42;;;;;;;12.03;8.17;;;;;;;0.65;100.00;93411.81;5091585;28;20209;-78
2021/12/07 09:44:11;;;;;;;13.33;8.20;;;;;;;0.68;100.00;93409.69;5085639;28;20196;-78
2021/12/07 09:46:41;;;;;;;11.13;5.93;;;;;;;0.86;100.00;93409.19;5092189;28;20203;-78
2021/12/07 09:49:10;;;;;;;11.70;6.77;;;;;;;0.77;100.00;93405.22;5092184;28;20197;-79
2021/12/07 09:51:40;;;;;;;10.50;5.70;;;;;;;0.70;100.00;93406.94;5092176;28;20200;-78
2021/12/07 09:54:10;;;;;;;12.33;6.50;;;;;;;0.70;100.00;93404.38;5092117;28;20281;-79
2021/12/07 09:56:41;;;;;;;13.20;6.40;;;;;;;0.71;100.00;93399.09;5085473;28;20208;-78
2021/12/07 09:59:11;;;;;;;11.77;7.00;;;;;;;0.71;100.00;93404.19;5092006;28;20200;-78
2021/12/07 10:01:42;;;;;;;15.43;7.83;;;;;;;0.77;100.00;93408.56;5091867;28;20201;-77
2021/12/07 10:04:10;;;;;;;17.10;7.83;;;;;;;0.86;100.00;93407.44;5091954;28;20299;-79
2021/12/07 10:06:37;;;;;;;23.07;10.70;;;;;;;0.92;100.00;93404.13;5091600;28;20203;-80
2021/12/07 10:09:07;;;;;;;19.77;9.93;;;;;;;0.90;100.00;93408.59;5091470;28;20640;-79
2021/12/07 10:11:36;;;;;;;16.37;8.27;;;;;;;0.92;100.00;93411.78;5091375;28;20250;-79
2021/12/07 10:14:06;;;;;;;18.97;9.83;;;;;;;0.88;100.00;93408.03;5091391;28;20213;-80
2021/12/07 10:16:36;;;;;;;11.37;7.87;;;;;;;0.95;100.00;93408.06;5084729;28;20662;-79
2021/12/07 10:19:04;;;;;;;18.33;8.97;;;;;;;0.81;100.00;93396.19;5085003;28;20201;-79
2021/12/07 10:21:39;;;;;;;11.57;7.77;;;;;;;0.94;100.00;93398.78;5089111;28;20697;-79
2021/12/07 10:24:10;;;;;;;12.53;7.47;;;;;;;0.89;100.00;93391.72;5091648;28;20597;-81
2021/12/07 10:26:41;;;;;;;13.20;7.90;;;;;;;0.86;100.00;93394.66;5090293;28;20677;-80
2021/12/07 10:29:13;;;;;;;11.17;7.17;;;;;;;0.86;100.00;93389.53;5091358;28;20200;-80
2021/12/07 10:31:42;;;;;;;12.60;6.93;;;;;;;0.85;100.00;93382.84;5091507;28;20243;-80
2021/12/07 10:34:14;;;;;;;12.43;7.13;;;;;;;0.88;100.00;93384.22;5090867;28;20204;-80
2021/12/07 10:36:45;;;;;;;15.33;8.87;;;;;;;0.88;100.00;93385.00;5091455;28;20253;-80
2021/12/07 10:39:15;;;;;;;13.20;8.33;;;;;;;0.93;100.00;93392.09;5091686;28;20200;-79
2021/12/07 10:41:45;;;;;;;15.37;9.20;;;;;;;0.96;100.00;93382.28;5090867;28;20203;-78
2021/12/07 10:44:16;;;;;;;15.10;8.03;;;;;;;1.03;100.00;93392.53;5091350;28;20224;-79
2021/12/07 10:46:53;;;;;;;18.60;11.63;;;;;;;0.94;100.00;93375.78;5091012;28;20209;-79
2021/12/07 10:49:32;;;;;;;24.30;14.00;;;;;;;1.03;100.00;93387.44;5090875;28;20634;-79
2021/12/07 10:52:21;;;;;;;19.07;10.47;;;;;;;1.00;100.00;93383.50;5091041;28;20593;-79
2021/12/07 10:54:54;;;;;;;19.80;11.13;;;;;;;1.07;100.00;93391.97;5088968;28;20232;-78
2021/12/07 10:57:24;;;;;;;19.83;10.73;;;;;;;1.04;100.00;93381.31;5091242;28;20257;-79
2021/12/07 11:00:01;;;;;;;23.93;10.73;;;;;;;1.05;100.00;93381.13;5091187;28;20679;-79
2021/12/07 11:02:33;;;;;;;16.87;9.00;;;;;;;1.07;100.00;93376.59;5083601;28;20204;-80
2021/12/07 11:05:03;;;;;;;19.63;9.97;;;;;;;1.11;100.00;93377.03;5091564;28;20213;-79
2021/12/07 11:07:32;;;;;;;10.50;6.60;;;;;;;1.04;100.00;93364.22;5090840;28;20207;-79
2021/12/07 11:10:05;;;;;;;13.47;8.03;;;;;;;0.96;100.00;93363.59;5090729;28;20231;-79
2021/12/07 11:12:41;;;;;;;12.40;6.70;;;;;;;0.99;100.00;93360.66;5090271;28;20204;-80
2021/12/07 11:15:18;;;;;;;13.10;7.97;;;;;;;1.08;100.00;93349.28;5090212;28;20200;-81
2021/12/07 11:17:47;;;;;;;12.70;6.60;;;;;;;1.01;100.00;93361.28;5090409;28;20211;-80
2021/12/07 11:20:16;;;;;;;11.53;7.27;;;;;;;0.91;100.00;93353.94;5090088;28;20663;-78
2021/12/07 11:22:49;;;;;;;10.43;5.93;;;;;;;0.91;100.00;93350.59;5090040;28;20236;-79
2021/12/07 11:31:15;;;;;;;15.00;8.30;;;;;;;0.90;100.00;93360.03;5090198;28;20215;-79
2021/12/07 11:33:45;;;;;;;15.80;8.80;;;;;;;0.98;100.00;93370.09;5089223;28;20207;-79
2021/12/07 11:36:18;;;;;;;15.93;8.70;;;;;;;0.95;100.00;93360.25;5089957;28;20197;-79
2021/12/07 11:38:45;;;;;;;14.97;9.23;;;;;;;0.94;100.00;93356.13;5083651;28;20205;-78
2021/12/07 11:41:21;;;;;;;11.17;6.57;;;;;;;0.95;100.00;93364.59;5083457;28;20211;-81
2021/12/07 11:44:02;;;;;;;13.03;8.60;;;;;;;1.03;100.00;93361.84;5089756;28;20297;-79
2021/12/07 11:46:34;;;;;;;13.87;8.07;;;;;;;1.02;100.00;93350.84;5089841;28;20216;-79
2021/12/07 11:49:08;;;;;;;15.80;9.30;;;;;;;0.96;100.00;93359.28;5090103;28;20211;-79
2021/12/07 11:51:36;;;;;;;13.17;8.43;;;;;;;0.98;100.00;93353.97;5089315;28;20251;-78
2021/12/07 11:54:04;;;;;;;11.60;6.53;;;;;;;0.96;100.00;93369.50;5089240;28;20768;-78
2021/12/07 11:56:33;;;;;;;6.80;4.97;;;;;;;1.04;100.00;93379.56;5089291;28;20196;-78
2021/12/07 11:59:02;;;;;;;15.30;9.07;;;;;;;0.91;100.00;93360.81;5089737;28;20205;-78
2021/12/07 12:01:29;;;;;;;11.93;7.30;;;;;;;0.87;100.00;93345.06;5081427;28;20200;-78
2021/12/07 12:03:59;;;;;;;13.33;6.77;;;;;;;0.85;100.00;93351.34;5090055;28;20204;-78
2021/12/07 12:06:27;;;;;;;12.23;6.63;;;;;;;0.94;100.00;93366.34;5089612;28;20266;-78
2021/12/07 12:08:57;;;;;;;11.17;6.53;;;;;;;0.81;100.00;93340.72;5089847;28;20204;-79
2021/12/07 12:11:33;;;;;;;13.07;6.87;;;;;;;0.97;100.00;93362.63;5089773;28;20577;-79
2021/12/07 12:14:12;;;;;;;15.30;8.73;;;;;;;0.97;100.00;93353.19;5083855;28;20205;-79
2021/12/07 12:16:52;;;;;;;17.97;7.83;;;;;;;1.03;100.00;93364.41;5084362;28;20269;-79
2021/12/07 12:19:29;;;;;;;14.13;8.07;;;;;;;0.98;100.00;93351.44;5089911;28;20232;-78
2021/12/07 12:22:01;;;;;;;12.43;7.40;;;;;;;0.91;100.00;93359.06;5088444;28;20192;-79
2021/12/07 12:24:36;;;;;;;12.07;7.77;;;;;;;0.86;100.00;93363.19;5089084;28;20201;-79
2021/12/07 12:27:10;;;;;;;12.27;7.50;;;;;;;0.82;100.00;93360.22;5090197;28;20306;-79
2021/12/07 12:29:40;;;;;;;12.97;7.70;;;;;;;0.90;100.00;93354.91;5087027;28;20201;-78
2021/12/07 12:32:08;;;;;;;8.60;6.17;;;;;;;0.89;100.00;93352.56;5089352;28;20229;-79
2021/12/07 12:34:47;;;;;;;13.40;8.13;;;;;;;0.91;100.00;93333.50;5083330;28;20200;-79
2021/12/07 12:37:18;;;;;;;15.00;7.50;;;;;;;0.91;100.00;93341.16;5089615;28;20196;-76
2021/12/07 12:39:51;;;;;;;13.43;7.93;;;;;;;0.90;100.00;93344.69;5089373;28;20204;-79
2021/12/07 12:42:32;;;;;;;17.77;9.00;;;;;;;0.93;100.00;93357.09;5089531;28;20291;-79
2021/12/07 12:45:05;;;;;;;18.17;9.10;;;;;;;0.97;100.00;93347.28;5093118;28;20200;-79
2021/12/07 12:47:33;;;;;;;12.80;7.63;;;;;;;0.92;100.00;93350.44;5093628;28;20583;-78
2021/12/07 12:50:19;;;;;;;13.73;7.30;;;;;;;0.95;100.00;93356.91;5093375;28;20209;-79
2021/12/07 12:52:50;;;;;;;20.80;10.43;;;;;;;1.00;100.00;93357.91;5087798;28;20243;-79
2021/12/07 12:55:43;;;;;;;23.77;10.97;;;;;;;1.04;100.00;93359.09;5093497;28;20264;-79
2021/12/07 12:58:14;;;;;;;19.40;10.90;;;;;;;1.11;100.00;93365.03;5093981;28;20292;-80
2021/12/07 13:01:20;;;;;;;28.33;13.03;;;;;;;1.03;100.00;93365.22;5088088;28;20627;-80
2021/12/07 13:04:06;;;;;;;22.27;11.87;;;;;;;0.92;100.00;93370.88;5094153;28;20196;-78
2021/12/07 13:06:50;;;;;;;21.77;12.00;;;;;;;0.89;100.00;93371.25;5094654;28;20675;-79
2021/12/07 13:09:27;;;;;;;25.70;13.47;;;;;;;0.93;100.00;93374.19;5088468;28;20200;-78